Terminal Aerodrome Forecast
Issued by NWS

Home | Current Version | Previous Version | Text Only | Print | Product List | Glossary On
Versions: 1 2 3 4 5 6 7 8 9 10 11 12 13 14 15 16 17 18 19 20 21 22 23 24 25 26 27 28 29
000
FTUS43 KDLH 022326
TAFHIB
TAF
KHIB 022326Z 0300/0324 30006KT P6SM OVC009
      TEMPO 0300/0302 OVC012
     FM031400 20004KT P6SM OVC015
     FM031800 18005KT P6SM BKN025
     FM032100 16005KT P6SM SCT025 BKN050=

USA.gov is the U.S. government's official web portal to all federal, state and local government web resources and services.